Time;durP1;ratioP1;P1;durP2;ratioP2;P2;SDS_P1;SDS_P2;PMS_P1;PMS_P2;Temp;Humidity;BMP_temperature;BMP_pressure;BME280_temperature;BME280_humidity;BME280_pressure;Samples;Min_cycle;Max_cycle;Signal;HPM_P1;HPM_P2
2021/07/26 00:00:37;;;;;;;6.23;4.30;;;;;;;;;;798908;174;918832;-65
2021/07/26 00:03:03;;;;;;;5.17;3.60;;;;;;;;;;794957;174;1001598;-65
2021/07/26 00:05:29;;;;;;;8.47;5.73;;;;;;;;;;792349;174;918873;-67
2021/07/26 00:07:55;;;;;;;7.20;4.13;;;;;;;;;;792576;174;919008;-65
2021/07/26 00:10:20;;;;;;;9.13;5.20;;;;;;;;;;797750;174;919563;-65
2021/07/26 00:12:46;;;;;;;7.53;4.90;;;;;;;;;;792806;174;918492;-65
2021/07/26 00:15:12;;;;;;;6.67;5.10;;;;;;;;;;796263;173;918602;-65
2021/07/26 00:17:38;;;;;;;8.70;4.27;;;;;;;;;;800489;173;918769;-65
2021/07/26 00:20:04;;;;;;;8.33;4.17;;;;;;;;;;791895;173;919069;-65
2021/07/26 00:22:30;;;;;;;6.70;5.80;;;;;;;;;;794879;173;919994;-64
2021/07/26 00:24:56;;;;;;;20.83;5.60;;;;;;;;;;798583;173;918812;-65
2021/07/26 00:27:22;;;;;;;7.85;4.25;;;;;;;;;;796480;173;919790;-65
2021/07/26 00:29:48;;;;;;;11.50;4.43;;;;;;;;;;793549;173;918458;-65
2021/07/26 00:32:14;;;;;;;11.45;5.78;;;;;;;;;;791955;173;918979;-65
2021/07/26 00:34:39;;;;;;;32.63;6.40;;;;;;;;;;793701;176;918683;-65
2021/07/26 00:37:05;;;;;;;9.07;5.07;;;;;;;;;;785018;176;919627;-66
2021/07/26 00:39:31;;;;;;;6.30;4.53;;;;;;;;;;781443;176;919562;-65
2021/07/26 00:41:57;;;;;;;9.53;4.90;;;;;;;;;;798970;174;917859;-65
2021/07/26 00:44:23;;;;;;;11.83;4.27;;;;;;;;;;792971;175;919432;-65
2021/07/26 00:46:49;;;;;;;6.20;5.60;;;;;;;;;;792647;174;919671;-65
2021/07/26 00:49:15;;;;;;;9.30;4.30;;;;;;;;;;800759;174;918735;-64
2021/07/26 00:51:42;;;;;;;10.63;5.82;;;;;;;;;;795626;174;919613;-64
2021/07/26 00:54:08;;;;;;;9.77;4.73;;;;;;;;;;792757;174;919362;-65
2021/07/26 00:56:34;;;;;;;16.40;6.43;;;;;;;;;;793820;174;919701;-64
2021/07/26 00:59:00;;;;;;;15.87;5.37;;;;;;;;;;797780;174;918906;-64
2021/07/26 01:01:26;;;;;;;8.13;5.73;;;;;;;;;;794912;174;919534;-65
2021/07/26 01:03:52;;;;;;;10.77;5.20;;;;;;;;;;793526;174;919847;-64
2021/07/26 01:06:18;;;;;;;9.50;5.30;;;;;;;;;;799421;174;919026;-65
2021/07/26 01:08:43;;;;;;;12.93;5.23;;;;;;;;;;795362;174;1022061;-64
2021/07/26 01:11:09;;;;;;;19.70;6.50;;;;;;;;;;794217;174;919061;-65
2021/07/26 01:13:35;;;;;;;13.48;6.15;;;;;;;;;;797699;175;918297;-65
2021/07/26 01:16:01;;;;;;;10.23;7.30;;;;;;;;;;788191;174;918714;-65
2021/07/26 01:18:29;;;;;;;16.00;6.10;;;;;;;;;;788705;174;919462;-65
2021/07/26 01:20:55;;;;;;;13.13;7.05;;;;;;;;;;793726;174;920024;-64
2021/07/26 01:23:21;;;;;;;12.43;7.97;;;;;;;;;;794942;175;919065;-66
2021/07/26 01:25:46;;;;;;;10.80;6.90;;;;;;;;;;786513;174;946577;-65
2021/07/26 01:28:14;;;;;;;15.60;7.20;;;;;;;;;;785545;176;919239;-64
2021/07/26 01:30:39;;;;;;;12.23;6.60;;;;;;;;;;794275;173;921669;-65
2021/07/26 01:33:05;;;;;;;15.50;7.60;;;;;;;;;;795456;173;919514;-65
2021/07/26 01:35:31;;;;;;;12.80;6.33;;;;;;;;;;791807;173;924825;-65
2021/07/26 01:37:56;;;;;;;10.80;6.10;;;;;;;;;;798395;174;894706;-65
2021/07/26 01:40:22;;;;;;;16.00;7.07;;;;;;;;;;787719;175;919458;-65
2021/07/26 01:42:48;;;;;;;25.00;7.50;;;;;;;;;;783556;174;918582;-65
2021/07/26 01:45:14;;;;;;;20.03;6.30;;;;;;;;;;799021;174;917602;-65
2021/07/26 01:47:40;;;;;;;18.17;7.20;;;;;;;;;;792303;174;919747;-65
2021/07/26 01:50:06;;;;;;;18.97;8.93;;;;;;;;;;794072;174;919442;-66
2021/07/26 01:52:32;;;;;;;24.83;7.62;;;;;;;;;;790886;174;1040169;-65
2021/07/26 01:54:58;;;;;;;14.93;8.37;;;;;;;;;;799323;174;919218;-65
2021/07/26 01:57:24;;;;;;;15.03;9.73;;;;;;;;;;783382;176;919211;-65
2021/07/26 01:59:51;;;;;;;18.07;9.23;;;;;;;;;;792232;174;919510;-64
2021/07/26 02:02:15;;;;;;;16.57;10.20;;;;;;;;;;797340;174;921429;-64
2021/07/26 02:04:41;;;;;;;19.00;11.20;;;;;;;;;;794498;174;918365;-66
2021/07/26 02:07:07;;;;;;;17.90;10.83;;;;;;;;;;793426;174;917940;-65
2021/07/26 02:09:33;;;;;;;23.40;11.27;;;;;;;;;;800266;174;920335;-65
2021/07/26 02:11:59;;;;;;;18.03;12.67;;;;;;;;;;793719;174;919734;-65
2021/07/26 02:14:25;;;;;;;17.73;11.40;;;;;;;;;;791553;174;918890;-64
2021/07/26 02:16:50;;;;;;;15.00;10.30;;;;;;;;;;792528;174;919317;-64
2021/07/26 02:19:16;;;;;;;19.43;10.20;;;;;;;;;;784208;177;918875;-64
2021/07/26 02:21:42;;;;;;;15.83;10.47;;;;;;;;;;784356;174;918364;-65
2021/07/26 02:24:08;;;;;;;19.13;11.07;;;;;;;;;;795307;174;920764;-64
2021/07/26 02:26:34;;;;;;;25.40;10.93;;;;;;;;;;797096;174;1021138;-65
2021/07/26 02:29:00;;;;;;;30.67;12.47;;;;;;;;;;792945;174;918852;-64
2021/07/26 02:31:26;;;;;;;18.63;11.37;;;;;;;;;;793422;174;918812;-65
2021/07/26 02:33:51;;;;;;;32.47;11.70;;;;;;;;;;797855;174;915207;-65
2021/07/26 02:36:17;;;;;;;21.13;12.17;;;;;;;;;;792808;174;918731;-65
2021/07/26 02:38:43;;;;;;;27.07;12.07;;;;;;;;;;792643;174;919283;-65
2021/07/26 02:41:11;;;;;;;14.93;10.90;;;;;;;;;;799613;173;915670;-64
2021/07/26 02:43:37;;;;;;;21.43;11.47;;;;;;;;;;786763;176;914843;-64
2021/07/26 02:46:05;;;;;;;17.83;9.03;;;;;;;;;;783813;176;918525;-64
2021/07/26 02:48:28;;;;;;;18.20;9.77;;;;;;;;;;782742;176;919794;-64
2021/07/26 02:50:54;;;;;;;16.70;9.20;;;;;;;;;;801720;173;919821;-66
2021/07/26 02:53:20;;;;;;;23.53;9.90;;;;;;;;;;794023;173;968993;-65
2021/07/26 02:55:46;;;;;;;22.90;10.37;;;;;;;;;;792210;173;919272;-65
2021/07/26 02:58:12;;;;;;;20.07;9.70;;;;;;;;;;800020;174;922109;-65
2021/07/26 03:00:38;;;;;;;27.20;10.07;;;;;;;;;;794520;174;912686;-65
2021/07/26 03:03:03;;;;;;;24.02;10.73;;;;;;;;;;793528;174;918735;-65
2021/07/26 03:05:30;;;;;;;39.90;11.87;;;;;;;;;;799567;174;920430;-65
2021/07/26 03:07:55;;;;;;;17.47;10.57;;;;;;;;;;780999;174;919508;-65
2021/07/26 03:10:21;;;;;;;15.23;9.77;;;;;;;;;;792573;174;916387;-65
2021/07/26 03:12:47;;;;;;;18.70;10.70;;;;;;;;;;792852;174;919823;-66
2021/07/26 03:15:13;;;;;;;21.20;10.10;;;;;;;;;;800742;174;918180;-65
2021/07/26 03:17:39;;;;;;;19.17;10.77;;;;;;;;;;791659;174;944414;-65
2021/07/26 03:20:06;;;;;;;21.57;10.10;;;;;;;;;;793512;174;920132;-66
2021/07/26 03:22:38;;;;;;;21.43;10.40;;;;;;;;;;778856;178;921357;-65
2021/07/26 03:25:04;;;;;;;15.73;9.50;;;;;;;;;;773414;180;919450;-65
2021/07/26 03:27:30;;;;;;;17.50;10.70;;;;;;;;;;771514;180;919527;-65
2021/07/26 03:29:56;;;;;;;16.07;9.33;;;;;;;;;;761983;181;919057;-65
2021/07/26 03:32:22;;;;;;;17.13;10.00;;;;;;;;;;774965;181;918977;-65
2021/07/26 03:34:48;;;;;;;20.90;11.77;;;;;;;;;;753342;181;918610;-65
2021/07/26 03:37:14;;;;;;;25.73;10.40;;;;;;;;;;794427;174;918794;-65
2021/07/26 03:39:39;;;;;;;24.20;11.53;;;;;;;;;;798195;174;918214;-65
2021/07/26 03:42:05;;;;;;;19.70;10.30;;;;;;;;;;792988;174;919926;-64
2021/07/26 03:44:31;;;;;;;18.13;9.90;;;;;;;;;;792718;174;922089;-65
2021/07/26 03:46:58;;;;;;;23.37;11.00;;;;;;;;;;798192;174;918746;-65
2021/07/26 03:49:24;;;;;;;17.00;10.77;;;;;;;;;;793894;175;918946;-65
2021/07/26 03:51:49;;;;;;;36.90;10.60;;;;;;;;;;795483;173;1021012;-64
2021/07/26 03:54:15;;;;;;;17.90;9.63;;;;;;;;;;785472;176;918413;-65
2021/07/26 03:56:41;;;;;;;28.80;11.50;;;;;;;;;;806560;173;919395;-65
2021/07/26 03:59:07;;;;;;;19.70;10.33;;;;;;;;;;782003;173;919725;-64
2021/07/26 04:01:33;;;;;;;26.50;10.97;;;;;;;;;;792415;173;918456;-65
2021/07/26 04:03:59;;;;;;;20.47;11.40;;;;;;;;;;799263;173;919381;-65
2021/07/26 04:06:25;;;;;;;27.17;12.83;;;;;;;;;;793696;173;919021;-65
2021/07/26 04:08:52;;;;;;;27.20;14.17;;;;;;;;;;790629;174;916150;-65
2021/07/26 04:11:30;;;;;;;18.30;12.37;;;;;;;;;;798363;174;915379;-65
2021/07/26 04:13:58;;;;;;;28.83;12.73;;;;;;;;;;797748;175;915936;-63
2021/07/26 04:16:21;;;;;;;20.43;13.13;;;;;;;;;;786846;174;915860;-64
2021/07/26 04:18:49;;;;;;;27.10;13.80;;;;;;;;;;793015;174;918740;-64
2021/07/26 04:21:12;;;;;;;22.33;12.63;;;;;;;;;;800514;174;887231;-63
2021/07/26 04:23:38;;;;;;;24.57;14.07;;;;;;;;;;795852;174;919761;-64
2021/07/26 04:26:06;;;;;;;26.30;14.73;;;;;;;;;;789000;176;885897;-65
2021/07/26 04:28:30;;;;;;;27.57;14.40;;;;;;;;;;777928;175;919859;-65
2021/07/26 04:30:56;;;;;;;31.43;14.87;;;;;;;;;;785533;176;924655;-64
2021/07/26 04:33:21;;;;;;;29.20;17.20;;;;;;;;;;783021;174;918630;-64
2021/07/26 04:35:47;;;;;;;35.58;15.05;;;;;;;;;;791103;174;920906;-65
2021/07/26 04:38:13;;;;;;;25.43;15.70;;;;;;;;;;797111;174;918578;-65
2021/07/26 04:40:39;;;;;;;31.43;15.60;;;;;;;;;;792080;174;918732;-65
2021/07/26 04:43:05;;;;;;;22.63;15.33;;;;;;;;;;790028;175;924856;-64
2021/07/26 04:45:31;;;;;;;31.40;18.23;;;;;;;;;;797554;174;920113;-65
2021/07/26 04:47:56;;;;;;;30.03;17.17;;;;;;;;;;777999;176;928053;-65
2021/07/26 04:50:22;;;;;;;30.70;16.87;;;;;;;;;;792962;174;912644;-65
2021/07/26 04:52:49;;;;;;;27.80;15.65;;;;;;;;;;801390;174;626415;-64
2021/07/26 04:55:15;;;;;;;32.43;15.60;;;;;;;;;;783054;176;853525;-66
2021/07/26 04:57:40;;;;;;;30.27;16.33;;;;;;;;;;794066;174;918298;-66
2021/07/26 05:00:07;;;;;;;18.53;13.63;;;;;;;;;;792056;176;919892;-65
2021/07/26 05:02:32;;;;;;;22.53;14.07;;;;;;;;;;802383;173;919138;-65
2021/07/26 05:04:58;;;;;;;21.50;14.20;;;;;;;;;;793435;173;917963;-65
2021/07/26 05:07:24;;;;;;;28.73;15.27;;;;;;;;;;796003;173;920241;-65
2021/07/26 05:09:50;;;;;;;19.53;13.43;;;;;;;;;;798358;173;919060;-65
2021/07/26 05:12:16;;;;;;;21.03;12.63;;;;;;;;;;791497;173;935457;-65
2021/07/26 05:14:42;;;;;;;17.60;13.20;;;;;;;;;;791325;174;1012757;-65
2021/07/26 05:17:07;;;;;;;26.20;14.10;;;;;;;;;;799159;173;918815;-65
2021/07/26 05:19:33;;;;;;;19.57;12.00;;;;;;;;;;792469;174;918767;-65
2021/07/26 05:21:59;;;;;;;20.03;13.07;;;;;;;;;;792681;174;918926;-65
2021/07/26 05:24:25;;;;;;;21.00;12.03;;;;;;;;;;790722;174;1025734;-64
2021/07/26 05:26:57;;;;;;;20.03;12.87;;;;;;;;;;789645;176;917261;-67
2021/07/26 05:29:22;;;;;;;18.07;11.13;;;;;;;;;;786767;174;920419;-64
2021/07/26 05:31:48;;;;;;;26.23;12.57;;;;;;;;;;783590;177;913877;-65
2021/07/26 05:34:14;;;;;;;20.57;12.03;;;;;;;;;;777876;178;915233;-65
2021/07/26 05:36:40;;;;;;;20.33;11.70;;;;;;;;;;764317;181;915619;-65
2021/07/26 05:39:06;;;;;;;21.60;10.70;;;;;;;;;;760981;181;916485;-65
2021/07/26 05:41:32;;;;;;;16.30;12.23;;;;;;;;;;778546;178;816412;-66
2021/07/26 05:43:57;;;;;;;14.57;11.27;;;;;;;;;;776724;180;630872;-65
2021/07/26 05:46:23;;;;;;;18.87;11.43;;;;;;;;;;761793;181;633038;-65
2021/07/26 05:48:49;;;;;;;20.30;13.17;;;;;;;;;;776899;179;629274;-65
2021/07/26 05:51:15;;;;;;;16.23;11.63;;;;;;;;;;798566;174;640506;-64
2021/07/26 05:53:41;;;;;;;21.87;14.20;;;;;;;;;;797999;174;633431;-65
2021/07/26 05:56:10;;;;;;;16.80;11.47;;;;;;;;;;793113;174;918961;-66
2021/07/26 05:58:41;;;;;;;17.77;12.00;;;;;;;;;;798019;174;919363;-65
2021/07/26 06:01:10;;;;;;;20.23;11.63;;;;;;;;;;793807;174;919350;-65
2021/07/26 06:03:24;;;;;;;20.10;12.43;;;;;;;;;;789973;174;919475;-65
2021/07/26 06:05:51;;;;;;;13.67;10.03;;;;;;;;;;799327;174;919166;-65
2021/07/26 06:08:16;;;;;;;23.13;11.87;;;;;;;;;;792836;174;918780;-65
2021/07/26 06:10:42;;;;;;;22.20;11.80;;;;;;;;;;791130;174;919496;-65
2021/07/26 06:13:08;;;;;;;12.17;9.80;;;;;;;;;;795674;171;919708;-66
2021/07/26 06:15:33;;;;;;;16.02;11.15;;;;;;;;;;802926;173;816146;-66
2021/07/26 06:17:59;;;;;;;10.80;9.50;;;;;;;;;;798446;173;624471;-66
2021/07/26 06:20:25;;;;;;;13.02;8.30;;;;;;;;;;794462;173;919052;-67
2021/07/26 06:22:52;;;;;;;12.20;8.50;;;;;;;;;;799985;173;918159;-66
2021/07/26 06:25:17;;;;;;;10.30;7.87;;;;;;;;;;792652;173;919867;-66
2021/07/26 06:27:43;;;;;;;12.20;8.77;;;;;;;;;;795420;173;925743;-66
2021/07/26 06:30:09;;;;;;;14.90;8.53;;;;;;;;;;796191;174;924012;-65
2021/07/26 06:32:35;;;;;;;13.40;8.53;;;;;;;;;;792615;174;918694;-66
2021/07/26 06:35:01;;;;;;;9.73;7.83;;;;;;;;;;797170;174;1021803;-65
2021/07/26 06:37:26;;;;;;;10.40;7.47;;;;;;;;;;796333;174;919404;-66
2021/07/26 06:39:52;;;;;;;10.73;8.40;;;;;;;;;;783653;179;918658;-66
2021/07/26 06:42:20;;;;;;;14.97;9.20;;;;;;;;;;786897;174;919350;-65
2021/07/26 06:44:45;;;;;;;9.60;7.83;;;;;;;;;;793159;174;919255;-65
2021/07/26 06:47:10;;;;;;;9.40;6.97;;;;;;;;;;800318;174;919577;-66
2021/07/26 06:49:36;;;;;;;15.00;6.47;;;;;;;;;;789114;174;919368;-65
2021/07/26 06:52:01;;;;;;;8.50;6.50;;;;;;;;;;794079;175;919475;-64
2021/07/26 06:54:27;;;;;;;9.83;7.50;;;;;;;;;;802722;174;919089;-64
2021/07/26 06:56:53;;;;;;;9.20;6.60;;;;;;;;;;795656;174;918693;-63
2021/07/26 06:59:19;;;;;;;10.50;7.03;;;;;;;;;;793623;174;923244;-64
2021/07/26 07:01:45;;;;;;;11.80;6.60;;;;;;;;;;797364;174;918210;-63
2021/07/26 07:04:12;;;;;;;9.97;7.50;;;;;;;;;;792976;174;919115;-63
2021/07/26 07:06:37;;;;;;;9.13;7.73;;;;;;;;;;794574;174;919713;-64
2021/07/26 07:09:02;;;;;;;11.70;7.77;;;;;;;;;;784427;174;918835;-64
2021/07/26 07:11:28;;;;;;;9.37;7.03;;;;;;;;;;790360;174;919064;-66
2021/07/26 07:13:55;;;;;;;11.93;6.22;;;;;;;;;;793846;174;919560;-65
2021/07/26 07:16:20;;;;;;;9.67;7.87;;;;;;;;;;786969;174;919071;-65
2021/07/26 07:18:46;;;;;;;13.77;7.40;;;;;;;;;;793814;174;919103;-62
2021/07/26 07:21:16;;;;;;;8.03;7.03;;;;;;;;;;792188;174;951356;-65
2021/07/26 07:23:41;;;;;;;18.07;9.13;;;;;;;;;;794288;174;918614;-66
2021/07/26 07:26:08;;;;;;;15.98;8.65;;;;;;;;;;796984;173;918616;-63
2021/07/26 07:28:33;;;;;;;11.80;8.97;;;;;;;;;;792691;174;919628;-64
2021/07/26 07:30:59;;;;;;;9.07;8.00;;;;;;;;;;791943;173;918721;-64
2021/07/26 07:33:25;;;;;;;7.50;6.33;;;;;;;;;;785160;173;918368;-66
2021/07/26 07:35:51;;;;;;;9.97;7.60;;;;;;;;;;797778;173;918462;-65
2021/07/26 07:38:17;;;;;;;10.43;7.57;;;;;;;;;;789636;173;919351;-63
2021/07/26 07:40:43;;;;;;;11.23;9.00;;;;;;;;;;784321;176;918753;-63
2021/07/26 07:43:09;;;;;;;8.80;7.50;;;;;;;;;;789952;174;918673;-64
2021/07/26 07:45:34;;;;;;;12.33;8.03;;;;;;;;;;794905;174;918607;-63
2021/07/26 07:48:01;;;;;;;18.73;6.90;;;;;;;;;;787782;174;1536391;-66
2021/07/26 07:50:26;;;;;;;9.87;6.43;;;;;;;;;;800704;174;919494;-63
2021/07/26 07:52:53;;;;;;;7.23;6.20;;;;;;;;;;791089;174;1020051;-64
2021/07/26 07:55:18;;;;;;;8.35;5.70;;;;;;;;;;791372;174;918680;-63
2021/07/26 07:57:46;;;;;;;9.07;7.17;;;;;;;;;;796974;174;905804;-63
2021/07/26 08:00:10;;;;;;;9.13;7.70;;;;;;;;;;799943;174;892104;-62
2021/07/26 08:02:36;;;;;;;8.60;6.00;;;;;;;;;;792582;174;918314;-64
2021/07/26 08:05:01;;;;;;;8.10;6.03;;;;;;;;;;793719;174;919180;-62
2021/07/26 08:07:27;;;;;;;7.20;6.50;;;;;;;;;;798685;174;919594;-64
2021/07/26 08:09:53;;;;;;;9.00;6.33;;;;;;;;;;788029;174;919206;-64
2021/07/26 08:12:19;;;;;;;7.63;6.70;;;;;;;;;;789145;174;919470;-63
2021/07/26 08:14:45;;;;;;;8.50;7.10;;;;;;;;;;797680;174;918202;-64
2021/07/26 08:17:11;;;;;;;8.60;6.20;;;;;;;;;;794690;174;919057;-64
2021/07/26 08:19:36;;;;;;;26.90;8.23;;;;;;;;;;793955;174;918187;-64
2021/07/26 08:22:03;;;;;;;8.23;7.17;;;;;;;;;;796148;174;918723;-65
2021/07/26 08:24:28;;;;;;;8.73;7.23;;;;;;;;;;796382;174;916863;-66
2021/07/26 08:26:54;;;;;;;7.70;6.90;;;;;;;;;;783474;174;921282;-64
2021/07/26 08:29:20;;;;;;;8.10;6.73;;;;;;;;;;797368;174;635007;-64
2021/07/26 08:31:46;;;;;;;11.60;7.87;;;;;;;;;;806071;174;618459;-65
2021/07/26 08:34:12;;;;;;;7.33;6.60;;;;;;;;;;784690;176;918635;-65
2021/07/26 08:36:38;;;;;;;10.33;8.60;;;;;;;;;;782860;174;918898;-64
2021/07/26 08:39:03;;;;;;;8.10;6.80;;;;;;;;;;800212;173;919161;-64
2021/07/26 08:41:29;;;;;;;8.40;7.50;;;;;;;;;;791669;173;919327;-65
2021/07/26 08:43:55;;;;;;;8.90;6.23;;;;;;;;;;792473;175;1021351;-66
2021/07/26 08:46:21;;;;;;;7.83;6.67;;;;;;;;;;784304;178;919798;-64
2021/07/26 08:48:48;;;;;;;8.80;6.50;;;;;;;;;;761119;181;919247;-66
2021/07/26 08:51:15;;;;;;;8.10;7.30;;;;;;;;;;762744;181;918854;-65
2021/07/26 08:53:41;;;;;;;7.80;6.70;;;;;;;;;;753868;183;919309;-66
2021/07/26 08:56:07;;;;;;;8.07;7.27;;;;;;;;;;798927;174;919292;-64
2021/07/26 08:58:33;;;;;;;9.13;7.27;;;;;;;;;;792406;174;916750;-66
2021/07/26 09:00:58;;;;;;;12.23;7.20;;;;;;;;;;792928;174;910404;-66
2021/07/26 09:03:24;;;;;;;7.05;6.35;;;;;;;;;;799151;174;918202;-66
2021/07/26 09:05:50;;;;;;;9.47;6.80;;;;;;;;;;793567;174;915281;-66
2021/07/26 09:08:16;;;;;;;10.07;6.82;;;;;;;;;;792659;174;903359;-66
2021/07/26 09:10:43;;;;;;;8.80;7.43;;;;;;;;;;798616;174;916233;-65
2021/07/26 09:13:10;;;;;;;6.30;5.67;;;;;;;;;;791426;174;920389;-65
2021/07/26 09:15:36;;;;;;;9.07;7.17;;;;;;;;;;793900;174;920643;-64
2021/07/26 09:18:00;;;;;;;6.77;5.63;;;;;;;;;;791772;174;919454;-63
2021/07/26 09:20:29;;;;;;;8.67;7.00;;;;;;;;;;796941;174;912327;-63
2021/07/26 09:22:56;;;;;;;8.83;6.97;;;;;;;;;;792003;174;916690;-66
2021/07/26 09:25:21;;;;;;;7.00;6.30;;;;;;;;;;792109;174;922113;-65
2021/07/26 09:27:53;;;;;;;8.53;7.10;;;;;;;;;;796407;174;919194;-66
2021/07/26 09:30:18;;;;;;;9.17;7.50;;;;;;;;;;792984;174;918987;-65
2021/07/26 09:32:44;;;;;;;6.27;5.57;;;;;;;;;;792528;174;875558;-66
2021/07/26 09:35:10;;;;;;;7.57;6.10;;;;;;;;;;793441;174;919345;-67
2021/07/26 09:37:39;;;;;;;9.80;7.10;;;;;;;;;;799555;174;918768;-66
2021/07/26 09:40:10;;;;;;;10.73;6.60;;;;;;;;;;788580;174;918554;-65
2021/07/26 09:42:36;;;;;;;8.20;7.40;;;;;;;;;;786137;176;920047;-66
2021/07/26 09:45:23;;;;;;;7.20;6.27;;;;;;;;;;792041;174;918586;-65
2021/07/26 09:47:54;;;;;;;6.60;5.90;;;;;;;;;;786063;176;1021176;-67
2021/07/26 09:50:26;;;;;;;8.70;6.43;;;;;;;;;;778963;177;919235;-65
2021/07/26 09:52:52;;;;;;;7.90;6.60;;;;;;;;;;794104;176;937814;-66
2021/07/26 09:55:18;;;;;;;6.57;5.53;;;;;;;;;;779940;173;919529;-66
2021/07/26 09:57:44;;;;;;;8.97;6.07;;;;;;;;;;793233;173;920439;-65
2021/07/26 10:00:12;;;;;;;7.10;5.80;;;;;;;;;;799086;173;918526;-65
2021/07/26 10:02:36;;;;;;;7.17;6.47;;;;;;;;;;795953;173;918443;-66
2021/07/26 10:05:02;;;;;;;9.33;6.30;;;;;;;;;;791091;174;919591;-66
2021/07/26 10:07:28;;;;;;;9.70;6.57;;;;;;;;;;798307;174;918636;-66
2021/07/26 10:09:54;;;;;;;8.10;6.40;;;;;;;;;;793350;174;920341;-66
2021/07/26 10:12:19;;;;;;;8.87;6.80;;;;;;;;;;793991;174;919635;-65
2021/07/26 10:14:49;;;;;;;7.43;6.03;;;;;;;;;;793652;174;919112;-66
2021/07/26 10:17:14;;;;;;;7.80;6.00;;;;;;;;;;782625;179;918903;-66
2021/07/26 10:19:40;;;;;;;7.57;5.60;;;;;;;;;;785540;175;919602;-65
2021/07/26 10:22:05;;;;;;;9.73;5.50;;;;;;;;;;791316;174;918880;-65
2021/07/26 10:24:41;;;;;;;7.53;5.73;;;;;;;;;;796226;174;918738;-65
2021/07/26 10:27:10;;;;;;;5.77;5.13;;;;;;;;;;802644;174;918454;-66
2021/07/26 10:29:41;;;;;;;7.93;6.30;;;;;;;;;;784601;174;918185;-65
2021/07/26 10:32:08;;;;;;;7.68;5.18;;;;;;;;;;789600;174;919970;-66
2021/07/26 10:34:34;;;;;;;5.63;4.50;;;;;;;;;;795024;174;918312;-65
2021/07/26 10:37:00;;;;;;;6.90;5.50;;;;;;;;;;791701;174;919756;-65
2021/07/26 10:39:28;;;;;;;7.00;5.70;;;;;;;;;;793132;174;918896;-65
2021/07/26 10:42:00;;;;;;;7.57;4.73;;;;;;;;;;792136;174;920822;-65
2021/07/26 10:44:42;;;;;;;7.00;4.70;;;;;;;;;;789259;174;918908;-65
2021/07/26 10:47:14;;;;;;;6.50;4.83;;;;;;;;;;791137;173;919607;-66
2021/07/26 10:49:45;;;;;;;7.13;5.30;;;;;;;;;;787774;176;919499;-64
2021/07/26 10:52:16;;;;;;;6.57;5.47;;;;;;;;;;770509;174;919532;-64
2021/07/26 10:54:42;;;;;;;6.43;5.13;;;;;;;;;;792129;174;918872;-67
2021/07/26 10:57:09;;;;;;;6.20;4.63;;;;;;;;;;798710;174;919206;-64
2021/07/26 10:59:39;;;;;;;9.33;5.20;;;;;;;;;;793863;172;923081;-67
2021/07/26 11:02:05;;;;;;;9.17;5.70;;;;;;;;;;793616;173;919289;-64
2021/07/26 11:04:33;;;;;;;6.07;5.13;;;;;;;;;;797114;173;907224;-65
2021/07/26 11:06:59;;;;;;;5.70;4.87;;;;;;;;;;800541;173;919680;-65
2021/07/26 11:09:40;;;;;;;10.23;5.67;;;;;;;;;;791119;173;918249;-66
2021/07/26 11:12:06;;;;;;;8.83;5.80;;;;;;;;;;788767;173;919124;-65
2021/07/26 11:14:32;;;;;;;7.03;4.50;;;;;;;;;;787719;173;919244;-65
2021/07/26 11:17:00;;;;;;;7.40;5.83;;;;;;;;;;798490;174;918454;-65
2021/07/26 11:19:29;;;;;;;6.30;5.17;;;;;;;;;;776536;177;918310;-64
2021/07/26 11:21:55;;;;;;;6.23;5.63;;;;;;;;;;797076;173;918914;-65
2021/07/26 11:24:26;;;;;;;9.27;4.67;;;;;;;;;;792461;174;919661;-65
2021/07/26 11:26:52;;;;;;;6.90;5.60;;;;;;;;;;799196;174;955102;-65
2021/07/26 11:29:18;;;;;;;7.53;5.10;;;;;;;;;;796164;174;916367;-65
2021/07/26 11:31:45;;;;;;;10.82;4.72;;;;;;;;;;794309;174;921009;-65
2021/07/26 11:34:10;;;;;;;10.40;6.60;;;;;;;;;;794924;174;815763;-65
2021/07/26 11:36:36;;;;;;;9.83;5.20;;;;;;;;;;792308;174;865535;-66
2021/07/26 11:39:02;;;;;;;6.00;5.30;;;;;;;;;;788985;174;919066;-64
2021/07/26 11:41:28;;;;;;;6.80;5.20;;;;;;;;;;794231;174;919836;-65
2021/07/26 11:43:54;;;;;;;10.60;5.60;;;;;;;;;;801018;174;919335;-64
2021/07/26 11:46:20;;;;;;;5.93;4.93;;;;;;;;;;792785;174;916154;-65
2021/07/26 11:48:46;;;;;;;5.53;4.40;;;;;;;;;;790976;174;918749;-64
2021/07/26 11:51:17;;;;;;;5.93;4.80;;;;;;;;;;799553;174;913065;-65
2021/07/26 11:53:43;;;;;;;6.07;5.30;;;;;;;;;;784242;176;915496;-65
2021/07/26 11:56:09;;;;;;;6.30;5.43;;;;;;;;;;779954;176;916194;-69
2021/07/26 11:58:35;;;;;;;7.80;5.10;;;;;;;;;;782809;174;915781;-66
2021/07/26 12:01:01;;;;;;;7.10;4.10;;;;;;;;;;798434;174;924807;-65
2021/07/26 12:03:27;;;;;;;6.80;4.87;;;;;;;;;;794124;174;916374;-65
2021/07/26 12:05:59;;;;;;;7.33;5.10;;;;;;;;;;795386;174;903903;-66
2021/07/26 12:08:25;;;;;;;6.00;4.90;;;;;;;;;;793803;174;916557;-65
2021/07/26 12:10:51;;;;;;;6.83;4.57;;;;;;;;;;791584;175;915925;-66
2021/07/26 12:13:18;;;;;;;6.30;4.70;;;;;;;;;;794100;173;919107;-65
2021/07/26 12:15:42;;;;;;;5.33;4.63;;;;;;;;;;793690;173;918907;-65
2021/07/26 12:18:10;;;;;;;6.83;5.93;;;;;;;;;;799616;173;918676;-65
2021/07/26 12:20:36;;;;;;;6.67;4.40;;;;;;;;;;792645;173;919362;-65
2021/07/26 12:23:08;;;;;;;5.60;4.13;;;;;;;;;;793938;173;920679;-66
2021/07/26 12:25:33;;;;;;;6.67;4.50;;;;;;;;;;794644;174;920806;-63
2021/07/26 12:28:02;;;;;;;6.20;4.50;;;;;;;;;;791688;176;922568;-65
2021/07/26 12:30:31;;;;;;;8.27;5.37;;;;;;;;;;781048;174;920140;-64
2021/07/26 12:32:57;;;;;;;7.73;4.80;;;;;;;;;;793081;173;919509;-65
2021/07/26 12:35:23;;;;;;;6.80;4.90;;;;;;;;;;798849;174;1064941;-65
2021/07/26 12:37:54;;;;;;;5.50;4.50;;;;;;;;;;793959;174;913245;-65
2021/07/26 12:40:21;;;;;;;5.63;4.47;;;;;;;;;;791667;174;919530;-65
2021/07/26 12:42:47;;;;;;;6.10;4.80;;;;;;;;;;793489;174;1173426;-65
2021/07/26 12:45:18;;;;;;;5.63;4.63;;;;;;;;;;795978;174;919085;-66
2021/07/26 12:47:44;;;;;;;6.10;5.07;;;;;;;;;;793136;174;931216;-66
2021/07/26 12:50:10;;;;;;;5.80;4.80;;;;;;;;;;793927;174;916320;-65
2021/07/26 12:52:36;;;;;;;7.20;5.03;;;;;;;;;;796974;174;914922;-64
2021/07/26 12:55:03;;;;;;;6.17;4.50;;;;;;;;;;792898;174;917558;-66
2021/07/26 12:57:29;;;;;;;5.87;5.10;;;;;;;;;;782887;174;916200;-66
2021/07/26 12:59:55;;;;;;;8.37;4.80;;;;;;;;;;792025;174;914646;-66
2021/07/26 13:02:22;;;;;;;6.40;4.50;;;;;;;;;;792425;174;1218503;-67
2021/07/26 13:04:48;;;;;;;6.57;5.13;;;;;;;;;;792532;174;911504;-65
2021/07/26 13:07:15;;;;;;;6.63;4.70;;;;;;;;;;796873;174;958157;-66
2021/07/26 13:09:40;;;;;;;5.77;4.77;;;;;;;;;;797785;174;972751;-65
2021/07/26 13:12:06;;;;;;;5.70;4.50;;;;;;;;;;786011;174;918790;-66
2021/07/26 13:14:32;;;;;;;8.40;4.77;;;;;;;;;;790489;174;919611;-66
2021/07/26 13:16:57;;;;;;;7.87;5.05;;;;;;;;;;791451;174;919110;-64
2021/07/26 13:19:23;;;;;;;6.37;4.80;;;;;;;;;;788641;176;918014;-65
2021/07/26 13:21:51;;;;;;;7.30;5.40;;;;;;;;;;777438;174;919861;-66
2021/07/26 13:24:15;;;;;;;8.50;5.67;;;;;;;;;;793884;173;918730;-68
2021/07/26 13:26:41;;;;;;;6.60;4.77;;;;;;;;;;799589;173;868502;-68
2021/07/26 13:29:07;;;;;;;6.43;4.97;;;;;;;;;;799331;173;918335;-67
2021/07/26 13:31:35;;;;;;;6.17;5.10;;;;;;;;;;794647;174;918455;-64
2021/07/26 13:33:58;;;;;;;6.43;5.43;;;;;;;;;;787552;176;864288;-66
2021/07/26 13:36:24;;;;;;;8.20;5.03;;;;;;;;;;793847;173;924866;-67
2021/07/26 13:38:50;;;;;;;10.47;5.47;;;;;;;;;;791499;173;919342;-67
2021/07/26 13:41:16;;;;;;;5.90;4.83;;;;;;;;;;795008;174;919569;-66
2021/07/26 13:43:42;;;;;;;7.60;5.17;;;;;;;;;;789730;174;1124044;-67
2021/07/26 13:46:07;;;;;;;6.37;4.90;;;;;;;;;;791161;174;919351;-67
2021/07/26 13:48:34;;;;;;;6.27;4.83;;;;;;;;;;794490;174;918681;-66
2021/07/26 13:51:00;;;;;;;6.30;4.73;;;;;;;;;;800274;174;919102;-66
2021/07/26 13:53:26;;;;;;;7.67;5.40;;;;;;;;;;792416;174;919450;-67
2021/07/26 13:55:51;;;;;;;6.97;4.90;;;;;;;;;;793536;174;919066;-66
2021/07/26 13:58:19;;;;;;;5.23;4.40;;;;;;;;;;798096;174;920355;-66
2021/07/26 14:00:43;;;;;;;6.03;5.27;;;;;;;;;;795500;174;918261;-65
2021/07/26 14:03:09;;;;;;;9.70;5.33;;;;;;;;;;789835;174;918629;-66
2021/07/26 14:05:35;;;;;;;5.63;4.70;;;;;;;;;;793473;174;917538;-66
2021/07/26 14:08:01;;;;;;;5.57;4.80;;;;;;;;;;788670;174;920541;-65
2021/07/26 14:10:26;;;;;;;6.30;4.55;;;;;;;;;;794208;174;917588;-66
2021/07/26 14:12:52;;;;;;;7.57;5.70;;;;;;;;;;794737;174;919080;-66